EJA20 KDCA-KRDU
Flight info
| Callsign | EJA20 |
|---|---|
| Flight time | 0h 39m |
| Altitude | 31000 |
| Route | JDUBB4 MELTN ALDAN4 |
| Aircraft | C25B/L-SDE2E3FGHRWXYZ/L |
Departure
| Time | 2026-04-30 02:04 |
|---|---|
| Airport | Ronald Reagan Washington National Airport (KDCA) |
Arrival
| Time | 2026-04-30 02:43 |
|---|---|
| Airport | Raleigh-Durham International Airport (KRDU) |
| Time | Latitude | Longitude | Altitude | Speed | Heading |
|---|---|---|---|---|---|
| 2026-04-30 01:41 | 38.84546 | -77.04732 | 19 ft | 0 kts | 324° |
| 2026-04-30 01:50 | 38.84560 | -77.04734 | 20 ft | 6 kts | 43° |
| 2026-04-30 01:51 | 38.84568 | -77.04615 | 18 ft | 12 kts | 86° |
| 2026-04-30 01:51 | 38.84568 | -77.04609 | 18 ft | 0 kts | 86° |
| 2026-04-30 01:51 | 38.84571 | -77.04583 | 18 ft | 10 kts | 77° |
| 2026-04-30 01:51 | 38.84577 | -77.04562 | 18 ft | 0 kts | 64° |
| 2026-04-30 01:52 | 38.84592 | -77.04539 | 18 ft | 11 kts | 46° |
| 2026-04-30 01:52 | 38.84648 | -77.04447 | 18 ft | 14 kts | 76° |
| 2026-04-30 01:53 | 38.84609 | -77.04381 | 18 ft | 0 kts | 141° |
| 2026-04-30 01:54 | 38.84600 | -77.04371 | 18 ft | 10 kts | 139° |
| 2026-04-30 01:55 | 38.84551 | -77.04304 | 20 ft | 12 kts | 123° |
| 2026-04-30 01:55 | 38.84532 | -77.04202 | 21 ft | 11 kts | 94° |
| 2026-04-30 01:55 | 38.84540 | -77.04105 | 20 ft | 11 kts | 78° |
| 2026-04-30 01:55 | 38.84542 | -77.04096 | 20 ft | 0 kts | 76° |
| 2026-04-30 01:56 | 38.84547 | -77.04072 | 20 ft | 6 kts | 69° |
| 2026-04-30 01:56 | 38.84574 | -77.04014 | 18 ft | 9 kts | 53° |
| 2026-04-30 01:56 | 38.84633 | -77.03966 | 17 ft | 11 kts | 26° |
| 2026-04-30 01:56 | 38.84708 | -77.03921 | 16 ft | 12 kts | 24° |
| 2026-04-30 01:57 | 38.84792 | -77.03882 | 15 ft | 13 kts | 4° |
| 2026-04-30 01:57 | 38.84875 | -77.03928 | 13 ft | 15 kts | 290° |
| 2026-04-30 01:57 | 38.84960 | -77.03957 | 13 ft | 14 kts | 356° |
| 2026-04-30 01:57 | 38.85061 | -77.03966 | 13 ft | 15 kts | 356° |
| 2026-04-30 01:58 | 38.85166 | -77.03977 | 14 ft | 15 kts | 355° |
| 2026-04-30 01:58 | 38.85270 | -77.03989 | 15 ft | 15 kts | 354° |
| 2026-04-30 01:58 | 38.85372 | -77.04000 | 16 ft | 15 kts | 355° |
| 2026-04-30 01:58 | 38.85474 | -77.04009 | 17 ft | 15 kts | 355° |
| 2026-04-30 01:59 | 38.85637 | -77.04041 | 21 ft | 13 kts | 355° |
| 2026-04-30 01:59 | 38.85701 | -77.04047 | 26 ft | 0 kts | 355° |
| 2026-04-30 02:00 | 38.85792 | -77.04057 | 21 ft | 22 kts | 355° |
| 2026-04-30 02:00 | 38.85927 | -77.04038 | 19 ft | 15 kts | 59° |
| 2026-04-30 02:01 | 38.85977 | -77.03965 | 18 ft | 0 kts | 15° |
| 2026-04-30 02:01 | 38.86001 | -77.03957 | 18 ft | 1 kts | 15° |
| 2026-04-30 02:02 | 38.86008 | -77.03954 | 17 ft | 0 kts | 15° |
| 2026-04-30 02:02 | 38.86015 | -77.03951 | 17 ft | 6 kts | 15° |
| 2026-04-30 02:03 | 38.86090 | -77.03888 | 15 ft | 20 kts | 96° |
| 2026-04-30 02:03 | 38.86070 | -77.03861 | 15 ft | 0 kts | 186° |
| 2026-04-30 02:03 | 38.85772 | -77.03841 | 18 ft | 102 kts | 175° |
| 2026-04-30 02:03 | 38.84743 | -77.03738 | 229 ft | 178 kts | 175° |
| 2026-04-30 02:04 | 38.83427 | -77.03639 | 1267 ft | 211 kts | 180° |
| 2026-04-30 02:04 | 38.81752 | -77.03746 | 1924 ft | 266 kts | 188° |
| 2026-04-30 02:04 | 38.79830 | -77.04012 | 2808 ft | 292 kts | 190° |
| 2026-04-30 02:04 | 38.77814 | -77.04821 | 2841 ft | 322 kts | 213° |
| 2026-04-30 02:05 | 38.76030 | -77.06722 | 3054 ft | 339 kts | 230° |
| 2026-04-30 02:05 | 38.74879 | -77.09318 | 3635 ft | 341 kts | 247° |
| 2026-04-30 02:05 | 38.73506 | -77.11808 | 4338 ft | 345 kts | 223° |
| 2026-04-30 02:05 | 38.71566 | -77.13626 | 5206 ft | 344 kts | 219° |
| 2026-04-30 02:06 | 38.69680 | -77.15446 | 6124 ft | 341 kts | 222° |
| 2026-04-30 02:06 | 38.67951 | -77.17432 | 7069 ft | 335 kts | 229° |
| 2026-04-30 02:06 | 38.66358 | -77.19651 | 8068 ft | 331 kts | 230° |
| 2026-04-30 02:06 | 38.64733 | -77.21748 | 9080 ft | 330 kts | 226° |
| 2026-04-30 02:07 | 38.63085 | -77.23738 | 10063 ft | 328 kts | 227° |
| 2026-04-30 02:07 | 38.61455 | -77.25780 | 11014 ft | 326 kts | 228° |
| 2026-04-30 02:07 | 38.59837 | -77.27816 | 12028 ft | 327 kts | 228° |
| 2026-04-30 02:07 | 38.58190 | -77.29891 | 13044 ft | 337 kts | 228° |
| 2026-04-30 02:08 | 38.56493 | -77.32016 | 14037 ft | 345 kts | 228° |
| 2026-04-30 02:08 | 38.54772 | -77.34153 | 14984 ft | 351 kts | 228° |
| 2026-04-30 02:08 | 38.53011 | -77.36368 | 15965 ft | 356 kts | 229° |
| 2026-04-30 02:08 | 38.51223 | -77.38590 | 16981 ft | 360 kts | 228° |
| 2026-04-30 02:09 | 38.49446 | -77.40814 | 18015 ft | 362 kts | 229° |
| 2026-04-30 02:09 | 38.48836 | -77.41579 | 18342 ft | 363 kts | 229° |
| 2026-04-30 02:09 | 38.44317 | -77.47207 | 20706 ft | 365 kts | 230° |
| 2026-04-30 02:10 | 38.42506 | -77.49450 | 21706 ft | 364 kts | 230° |
| 2026-04-30 02:10 | 38.40692 | -77.51714 | 22771 ft | 361 kts | 230° |
| 2026-04-30 02:10 | 38.38919 | -77.53906 | 23762 ft | 358 kts | 231° |
| 2026-04-30 02:10 | 38.37140 | -77.56122 | 24686 ft | 354 kts | 231° |
| 2026-04-30 02:11 | 38.35378 | -77.58304 | 25648 ft | 350 kts | 231° |
| 2026-04-30 02:11 | 38.33646 | -77.60451 | 26626 ft | 343 kts | 232° |
| 2026-04-30 02:11 | 38.31948 | -77.62553 | 27644 ft | 336 kts | 232° |
| 2026-04-30 02:11 | 38.30290 | -77.64558 | 28683 ft | 331 kts | 230° |
| 2026-04-30 02:12 | 38.28437 | -77.66316 | 29720 ft | 331 kts | 225° |
| 2026-04-30 02:12 | 38.26491 | -77.68025 | 29824 ft | 347 kts | 225° |
| 2026-04-30 02:12 | 38.24470 | -77.69773 | 29827 ft | 364 kts | 224° |
| 2026-04-30 02:12 | 38.22335 | -77.71588 | 29835 ft | 376 kts | 223° |
| 2026-04-30 02:13 | 38.20123 | -77.73486 | 29833 ft | 387 kts | 223° |
| 2026-04-30 02:13 | 38.15545 | -77.77427 | 29861 ft | 404 kts | 223° |
| 2026-04-30 02:14 | 38.10844 | -77.81449 | 29866 ft | 414 kts | 223° |
| 2026-04-30 02:14 | 38.08439 | -77.83504 | 29869 ft | 418 kts | 223° |
| 2026-04-30 02:15 | 37.96029 | -77.94104 | 29866 ft | 431 kts | 222° |
| 2026-04-30 02:16 | 37.91059 | -77.98336 | 29868 ft | 434 kts | 222° |
| 2026-04-30 02:17 | 37.81096 | -78.06803 | 29858 ft | 437 kts | 222° |
| 2026-04-30 02:17 | 37.76059 | -78.11074 | 29846 ft | 438 kts | 222° |
| 2026-04-30 02:18 | 37.70966 | -78.15383 | 29845 ft | 439 kts | 221° |
| 2026-04-30 02:18 | 37.65902 | -78.19661 | 29838 ft | 440 kts | 221° |
| 2026-04-30 02:19 | 37.60797 | -78.23967 | 29843 ft | 441 kts | 221° |
| 2026-04-30 02:19 | 37.55678 | -78.28277 | 29842 ft | 442 kts | 221° |
| 2026-04-30 02:20 | 37.50555 | -78.32577 | 29848 ft | 442 kts | 221° |
| 2026-04-30 02:20 | 37.45572 | -78.37081 | 29845 ft | 439 kts | 224° |
| 2026-04-30 02:21 | 37.40520 | -78.41410 | 29854 ft | 444 kts | 220° |
| 2026-04-30 02:21 | 37.35328 | -78.45656 | 29849 ft | 443 kts | 222° |
| 2026-04-30 02:22 | 37.30174 | -78.49972 | 29795 ft | 446 kts | 221° |
| 2026-04-30 02:22 | 37.27565 | -78.52119 | 29438 ft | 450 kts | 221° |
| 2026-04-30 02:22 | 37.24968 | -78.54274 | 29025 ft | 453 kts | 221° |
| 2026-04-30 02:22 | 37.22319 | -78.56474 | 28476 ft | 458 kts | 221° |
| 2026-04-30 02:23 | 37.19645 | -78.58691 | 27880 ft | 462 kts | 220° |
| 2026-04-30 02:23 | 37.16947 | -78.60907 | 27316 ft | 465 kts | 220° |
| 2026-04-30 02:23 | 37.14280 | -78.63115 | 26762 ft | 466 kts | 220° |
| 2026-04-30 02:23 | 37.11549 | -78.65363 | 26211 ft | 467 kts | 219° |
| 2026-04-30 02:24 | 37.08796 | -78.67639 | 25663 ft | 468 kts | 219° |
| 2026-04-30 02:24 | 37.06105 | -78.69850 | 25142 ft | 468 kts | 219° |
| 2026-04-30 02:24 | 37.03384 | -78.72090 | 24624 ft | 468 kts | 219° |
| 2026-04-30 02:24 | 37.00658 | -78.74330 | 24112 ft | 468 kts | 218° |
| 2026-04-30 02:25 | 36.97934 | -78.76568 | 23612 ft | 468 kts | 218° |
| 2026-04-30 02:25 | 36.95207 | -78.78809 | 23050 ft | 467 kts | 218° |
| 2026-04-30 02:25 | 36.92488 | -78.81031 | 22267 ft | 467 kts | 218° |
| 2026-04-30 02:25 | 36.90676 | -78.82521 | 21665 ft | 471 kts | 218° |
| 2026-04-30 02:26 | 36.87028 | -78.85508 | 20498 ft | 475 kts | 218° |
| 2026-04-30 02:26 | 36.84247 | -78.87783 | 19644 ft | 477 kts | 218° |
| 2026-04-30 02:26 | 36.81465 | -78.90054 | 18819 ft | 478 kts | 217° |
| 2026-04-30 02:26 | 36.78676 | -78.92328 | 17992 ft | 477 kts | 217° |
| 2026-04-30 02:27 | 36.75895 | -78.94584 | 17079 ft | 477 kts | 216° |
| 2026-04-30 02:27 | 36.72926 | -78.96417 | 16859 ft | 468 kts | 208° |
| 2026-04-30 02:27 | 36.69951 | -78.97789 | 16845 ft | 460 kts | 200° |
| 2026-04-30 02:27 | 36.66846 | -78.98680 | 16849 ft | 455 kts | 195° |
| 2026-04-30 02:28 | 36.63866 | -78.99056 | 16853 ft | 404 kts | 188° |
| 2026-04-30 02:28 | 36.61165 | -78.99074 | 16852 ft | 384 kts | 182° |
| 2026-04-30 02:28 | 36.58504 | -78.98730 | 16906 ft | 383 kts | 177° |
| 2026-04-30 02:28 | 36.55882 | -78.98055 | 16992 ft | 383 kts | 172° |
| 2026-04-30 02:29 | 36.53275 | -78.97304 | 16757 ft | 388 kts | 173° |
| 2026-04-30 02:29 | 36.50636 | -78.96572 | 16363 ft | 397 kts | 172° |
| 2026-04-30 02:29 | 36.47885 | -78.95759 | 15959 ft | 404 kts | 171° |
| 2026-04-30 02:29 | 36.46994 | -78.95498 | 15833 ft | 405 kts | 172° |
| 2026-04-30 02:30 | 36.43319 | -78.94430 | 15317 ft | 410 kts | 171° |
| 2026-04-30 02:30 | 36.40535 | -78.93626 | 14934 ft | 412 kts | 172° |
| 2026-04-30 02:30 | 36.39591 | -78.93357 | 14811 ft | 412 kts | 172° |
| 2026-04-30 02:30 | 36.35850 | -78.92675 | 14304 ft | 407 kts | 181° |
| 2026-04-30 02:31 | 36.31147 | -78.92485 | 13681 ft | 406 kts | 184° |
| 2026-04-30 02:31 | 36.28320 | -78.92455 | 13270 ft | 405 kts | 184° |
| 2026-04-30 02:31 | 36.25497 | -78.92436 | 12851 ft | 405 kts | 184° |
| 2026-04-30 02:31 | 36.22666 | -78.92433 | 12252 ft | 408 kts | 184° |
| 2026-04-30 02:32 | 36.19883 | -78.92421 | 11642 ft | 395 kts | 184° |
| 2026-04-30 02:32 | 36.17189 | -78.92407 | 11026 ft | 379 kts | 185° |
| 2026-04-30 02:32 | 36.14592 | -78.92356 | 10414 ft | 367 kts | 180° |
| 2026-04-30 02:32 | 36.12143 | -78.91431 | 9740 ft | 375 kts | 155° |
| 2026-04-30 02:33 | 36.10133 | -78.89350 | 9058 ft | 380 kts | 133° |
| 2026-04-30 02:34 | 36.08973 | -78.77099 | 6551 ft | 351 kts | 81° |
| 2026-04-30 02:34 | 36.09278 | -78.74209 | 6019 ft | 327 kts | 81° |
| 2026-04-30 02:34 | 36.09561 | -78.71550 | 5990 ft | 298 kts | 81° |
| 2026-04-30 02:35 | 36.10388 | -78.66843 | 5677 ft | 268 kts | 62° |
| 2026-04-30 02:35 | 36.11195 | -78.64799 | 5492 ft | 263 kts | 61° |
| 2026-04-30 02:35 | 36.11947 | -78.62830 | 5287 ft | 239 kts | 60° |
| 2026-04-30 02:35 | 36.12597 | -78.61081 | 5071 ft | 214 kts | 69° |
| 2026-04-30 02:36 | 36.12546 | -78.59301 | 4824 ft | 212 kts | 115° |
| 2026-04-30 02:36 | 36.11715 | -78.57803 | 4636 ft | 212 kts | 131° |
| 2026-04-30 02:36 | 36.10770 | -78.56406 | 4442 ft | 208 kts | 144° |
| 2026-04-30 02:36 | 36.09470 | -78.55877 | 4235 ft | 195 kts | 187° |
| 2026-04-30 02:37 | 36.08156 | -78.56136 | 4055 ft | 188 kts | 204° |
| 2026-04-30 02:37 | 36.06977 | -78.56776 | 4007 ft | 181 kts | 210° |
| 2026-04-30 02:37 | 36.05842 | -78.57362 | 4006 ft | 176 kts | 209° |
| 2026-04-30 02:37 | 36.04724 | -78.57972 | 3999 ft | 175 kts | 209° |
| 2026-04-30 02:38 | 36.03579 | -78.58589 | 4000 ft | 187 kts | 210° |
| 2026-04-30 02:38 | 36.02380 | -78.59289 | 4007 ft | 193 kts | 213° |
| 2026-04-30 02:38 | 36.01410 | -78.60359 | 3836 ft | 187 kts | 243° |
| 2026-04-30 02:38 | 36.00822 | -78.61798 | 3602 ft | 188 kts | 240° |
| 2026-04-30 02:39 | 35.99970 | -78.63021 | 3372 ft | 192 kts | 229° |
| 2026-04-30 02:39 | 35.99027 | -78.64201 | 3138 ft | 194 kts | 228° |
| 2026-04-30 02:39 | 35.98059 | -78.65377 | 2996 ft | 190 kts | 227° |
| 2026-04-30 02:39 | 35.97146 | -78.66514 | 2996 ft | 183 kts | 228° |
| 2026-04-30 02:40 | 35.96549 | -78.67249 | 2992 ft | 180 kts | 227° |
| 2026-04-30 02:40 | 35.95413 | -78.68660 | 2968 ft | 165 kts | 228° |
| 2026-04-30 02:40 | 35.94594 | -78.69670 | 2619 ft | 169 kts | 228° |
| 2026-04-30 02:40 | 35.94045 | -78.70365 | 2370 ft | 171 kts | 229° |
| 2026-04-30 02:41 | 35.93194 | -78.71416 | 2030 ft | 171 kts | 227° |
| 2026-04-30 02:41 | 35.92370 | -78.72432 | 1750 ft | 168 kts | 227° |
| 2026-04-30 02:41 | 35.91544 | -78.73456 | 1472 ft | 168 kts | 226° |
| 2026-04-30 02:41 | 35.90703 | -78.74477 | 1185 ft | 170 kts | 225° |
| 2026-04-30 02:42 | 35.89878 | -78.75497 | 968 ft | 169 kts | 226° |
| 2026-04-30 02:42 | 35.89079 | -78.76543 | 792 ft | 167 kts | 224° |
| 2026-04-30 02:42 | 35.88240 | -78.77551 | 592 ft | 167 kts | 224° |
| 2026-04-30 02:42 | 35.87480 | -78.78483 | 428 ft | 141 kts | 225° |
| 2026-04-30 02:43 | 35.86877 | -78.79224 | 412 ft | 83 kts | 225° |
| 2026-04-30 02:43 | 35.86783 | -78.79437 | 413 ft | 0 kts | 270° |
| 2026-04-30 02:44 | 35.86790 | -78.79463 | 413 ft | 11 kts | 306° |
| 2026-04-30 02:44 | 35.86857 | -78.79442 | 412 ft | 13 kts | 45° |
| 2026-04-30 02:44 | 35.86924 | -78.79357 | 412 ft | 14 kts | 45° |
| 2026-04-30 02:44 | 35.86946 | -78.79329 | 409 ft | 14 kts | 45° |